createdAt,value
2024-03-26T00:00:46.537Z,8.17
2024-03-26T00:01:46.558Z,8.14
2024-03-26T00:02:46.528Z,8.11
2024-03-26T00:03:46.535Z,8.10
2024-03-26T00:04:46.505Z,8.14
2024-03-26T00:05:46.466Z,8.15
2024-03-26T00:06:46.480Z,8.15
2024-03-26T00:07:46.466Z,8.18
2024-03-26T00:08:46.482Z,8.17
2024-03-26T00:09:46.460Z,8.17
2024-03-26T00:10:46.457Z,8.15
2024-03-26T00:11:46.415Z,8.15
2024-03-26T00:12:46.391Z,8.17
2024-03-26T00:13:46.394Z,8.18
2024-03-26T00:14:46.382Z,8.20
2024-03-26T00:15:46.357Z,8.18
2024-03-26T00:16:46.348Z,8.20
2024-03-26T00:17:46.309Z,8.21
2024-03-26T00:18:46.327Z,8.21
2024-03-26T00:19:46.284Z,8.22
2024-03-26T00:20:46.291Z,8.20
2024-03-26T00:21:46.284Z,8.17
2024-03-26T00:22:46.258Z,8.18
2024-03-26T00:23:46.248Z,8.21
2024-03-26T00:24:46.206Z,8.21
2024-03-26T00:25:46.198Z,8.22
2024-03-26T00:26:46.235Z,8.22
2024-03-26T00:27:46.249Z,8.20
2024-03-26T00:28:46.183Z,8.25
2024-03-26T00:29:46.158Z,8.22
2024-03-26T00:30:46.162Z,8.22
2024-03-26T00:31:46.155Z,8.25
2024-03-26T00:32:46.135Z,8.28
2024-03-26T00:33:46.132Z,8.25
2024-03-26T00:34:46.076Z,8.17
2024-03-26T00:35:46.096Z,8.15
2024-03-26T00:36:46.090Z,8.18
2024-03-26T00:37:46.061Z,8.18
2024-03-26T00:38:46.048Z,8.17
2024-03-26T00:39:46.013Z,8.14
2024-03-26T00:40:46.018Z,8.14
2024-03-26T00:41:46.030Z,8.15
2024-03-26T00:42:46.009Z,8.14
2024-03-26T00:43:45.994Z,8.10
2024-03-26T00:44:45.957Z,8.10
2024-03-26T00:45:45.957Z,8.10
2024-03-26T00:46:45.967Z,8.11
2024-03-26T00:47:45.915Z,8.12
2024-03-26T00:48:45.915Z,8.12
2024-03-26T00:49:45.883Z,8.10
2024-03-26T00:50:45.885Z,8.12
2024-03-26T00:51:45.889Z,8.11
2024-03-26T00:52:45.845Z,8.08
2024-03-26T00:53:45.886Z,8.10
2024-03-26T00:54:45.830Z,8.08
2024-03-26T00:55:45.837Z,8.10
2024-03-26T00:56:45.807Z,8.08
2024-03-26T00:57:45.780Z,8.08
2024-03-26T00:58:45.792Z,8.10
2024-03-26T00:59:45.788Z,8.03
2024-03-26T01:00:45.769Z,8.03
2024-03-26T01:01:45.743Z,8.04
2024-03-26T01:02:45.739Z,8.04
2024-03-26T01:03:45.699Z,7.99
2024-03-26T01:04:45.718Z,7.99
2024-03-26T01:05:45.768Z,7.97
2024-03-26T01:06:45.678Z,7.99
2024-03-26T01:07:45.654Z,7.96
2024-03-26T01:08:45.639Z,7.96
2024-03-26T01:09:45.682Z,7.94
2024-03-26T01:10:45.664Z,7.96
2024-03-26T01:11:45.615Z,8.00
2024-03-26T01:12:45.594Z,7.99
2024-03-26T01:13:47.442Z,7.99
2024-03-26T01:14:45.652Z,7.97
2024-03-26T01:15:45.577Z,7.99
2024-03-26T01:16:45.558Z,7.97
2024-03-26T01:17:45.574Z,7.94
2024-03-26T01:18:45.516Z,7.94
2024-03-26T01:19:45.561Z,7.94
2024-03-26T01:20:45.494Z,7.99
2024-03-26T01:21:45.498Z,7.99
2024-03-26T01:22:45.480Z,7.99
2024-03-26T01:23:45.563Z,7.97
2024-03-26T01:24:45.436Z,7.96
2024-03-26T01:25:45.425Z,7.93
2024-03-26T01:26:45.456Z,7.94
2024-03-26T01:27:45.424Z,7.96
2024-03-26T01:28:45.383Z,7.96
2024-03-26T01:29:45.402Z,7.97
2024-03-26T01:30:45.350Z,7.99
2024-03-26T01:31:45.353Z,8.02
2024-03-26T01:32:45.344Z,8.02
2024-03-26T01:33:45.348Z,8.03
2024-03-26T01:34:45.314Z,8.07
2024-03-26T01:35:45.343Z,8.04
2024-03-26T01:36:45.300Z,8.08
2024-03-26T01:37:45.295Z,8.08
2024-03-26T01:38:45.281Z,8.04
2024-03-26T01:39:45.263Z,8.07
2024-03-26T01:40:45.250Z,8.04
2024-03-26T01:41:45.251Z,8.03
2024-03-26T01:42:45.196Z,8.07
2024-03-26T01:43:45.226Z,8.10
2024-03-26T01:44:45.176Z,8.08
2024-03-26T01:45:45.173Z,8.07
2024-03-26T01:46:45.152Z,8.07
2024-03-26T01:47:45.175Z,8.10
2024-03-26T01:48:45.112Z,8.11
2024-03-26T01:49:45.108Z,8.15
2024-03-26T01:50:45.147Z,8.08
2024-03-26T01:51:45.096Z,8.07
2024-03-26T01:52:45.073Z,8.07
2024-03-26T01:53:45.088Z,8.03
2024-03-26T01:54:45.022Z,8.04
2024-03-26T01:55:45.037Z,8.04
2024-03-26T01:56:45.073Z,8.03
2024-03-26T01:57:45.038Z,8.04
2024-03-26T01:58:45.026Z,8.07
2024-03-26T01:59:45.000Z,8.11
2024-03-26T02:00:44.954Z,8.10
2024-03-26T02:01:44.959Z,8.08
2024-03-26T02:02:44.992Z,8.07
2024-03-26T02:03:44.945Z,8.10
2024-03-26T02:04:44.987Z,8.08
2024-03-26T02:05:44.927Z,8.12
2024-03-26T02:06:44.886Z,8.07
2024-03-26T02:07:44.894Z,8.08
2024-03-26T02:08:44.884Z,8.10
2024-03-26T02:09:44.852Z,8.07
2024-03-26T02:10:44.859Z,8.12
2024-03-26T02:11:44.870Z,8.10
2024-03-26T02:12:44.809Z,8.11
2024-03-26T02:13:44.815Z,8.11
2024-03-26T02:14:44.801Z,8.14
2024-03-26T02:15:44.789Z,8.15
2024-03-26T02:16:44.771Z,8.17
2024-03-26T02:17:44.741Z,8.15
2024-03-26T02:18:44.758Z,8.12
2024-03-26T02:19:44.750Z,8.11
2024-03-26T02:20:45.744Z,8.10
2024-03-26T02:21:44.679Z,8.08
2024-03-26T02:22:44.671Z,8.10
2024-03-26T02:23:44.668Z,8.10
2024-03-26T02:24:44.659Z,8.10
2024-03-26T02:25:44.631Z,8.11
2024-03-26T02:26:44.699Z,8.11
2024-03-26T02:27:44.618Z,8.12
2024-03-26T02:28:44.618Z,8.11
2024-03-26T02:29:44.690Z,8.11
2024-03-26T02:30:44.589Z,8.10
2024-03-26T02:31:44.543Z,8.11
2024-03-26T02:32:44.576Z,8.11
2024-03-26T02:33:44.544Z,8.10
2024-03-26T02:34:44.541Z,8.11
2024-03-26T02:35:44.489Z,8.15
2024-03-26T02:36:44.494Z,8.14
2024-03-26T02:37:44.477Z,8.15
2024-03-26T02:38:44.502Z,8.17
2024-03-26T02:39:44.462Z,8.20
2024-03-26T02:40:44.450Z,8.18
2024-03-26T02:41:44.422Z,8.18
2024-03-26T02:42:44.411Z,8.15
2024-03-26T02:43:44.406Z,8.15
2024-03-26T02:44:44.375Z,8.20
2024-03-26T02:45:44.355Z,8.20
2024-03-26T02:46:44.333Z,8.20
2024-03-26T02:47:44.389Z,8.21
2024-03-26T02:48:44.307Z,8.21
2024-03-26T02:49:44.305Z,8.20
2024-03-26T02:50:44.317Z,8.18
2024-03-26T02:51:44.324Z,8.20
2024-03-26T02:52:44.295Z,8.17
2024-03-26T02:53:44.281Z,8.18
2024-03-26T02:54:44.263Z,8.15
2024-03-26T02:55:44.265Z,8.18
2024-03-26T02:56:44.262Z,8.20
2024-03-26T02:57:44.248Z,8.15
2024-03-26T02:58:44.176Z,8.14
2024-03-26T02:59:44.189Z,8.08
2024-03-26T03:00:44.228Z,8.11
2024-03-26T03:01:44.156Z,8.10
2024-03-26T03:02:46.072Z,8.10
2024-03-26T03:03:44.158Z,8.10
2024-03-26T03:04:44.107Z,8.08
2024-03-26T03:05:44.116Z,8.10
2024-03-26T03:06:44.125Z,8.10
2024-03-26T03:07:44.087Z,8.10
2024-03-26T03:08:44.056Z,8.10
2024-03-26T03:09:44.068Z,8.10
2024-03-26T03:10:44.041Z,8.08
2024-03-26T03:11:44.064Z,8.10
2024-03-26T03:12:44.002Z,8.07
2024-03-26T03:13:43.989Z,8.04
2024-03-26T03:14:43.982Z,8.07
2024-03-26T03:15:44.007Z,8.04
2024-03-26T03:16:43.943Z,8.04
2024-03-26T03:17:43.952Z,8.04
2024-03-26T03:18:43.982Z,8.04
2024-03-26T03:19:43.933Z,8.03
2024-03-26T03:20:43.924Z,8.03
2024-03-26T03:21:43.899Z,8.03
2024-03-26T03:22:43.853Z,8.07
2024-03-26T03:23:43.878Z,8.07
2024-03-26T03:24:43.853Z,8.02
2024-03-26T03:25:43.849Z,8.03
2024-03-26T03:26:43.831Z,8.04
2024-03-26T03:27:43.822Z,8.08
2024-03-26T03:28:43.802Z,8.07
2024-03-26T03:29:43.800Z,8.04
2024-03-26T03:30:43.775Z,8.07
2024-03-26T03:31:43.767Z,8.04
2024-03-26T03:32:43.775Z,8.04
2024-03-26T03:33:43.738Z,8.07
2024-03-26T03:34:43.752Z,8.04
2024-03-26T03:35:43.746Z,8.07
2024-03-26T03:36:43.689Z,8.07
2024-03-26T03:37:43.737Z,8.02
2024-03-26T03:38:43.674Z,8.07
2024-03-26T03:39:43.680Z,8.04
2024-03-26T03:40:43.643Z,8.07
2024-03-26T03:41:43.655Z,8.07
2024-03-26T03:42:43.597Z,8.04
2024-03-26T03:43:43.642Z,8.04
2024-03-26T03:44:43.608Z,8.04
2024-03-26T03:45:43.557Z,8.04
2024-03-26T03:46:43.539Z,8.03
2024-03-26T03:47:43.571Z,8.03
2024-03-26T03:48:43.540Z,8.04
2024-03-26T03:49:43.535Z,8.08
2024-03-26T03:50:43.484Z,8.03
2024-03-26T03:51:43.512Z,8.04
2024-03-26T03:52:43.482Z,8.10
2024-03-26T03:53:43.517Z,8.07
2024-03-26T03:54:43.461Z,8.07
2024-03-26T03:55:43.427Z,8.07
2024-03-26T03:56:43.418Z,8.08
2024-03-26T03:57:43.436Z,8.08
2024-03-26T03:58:43.407Z,8.04
2024-03-26T03:59:43.410Z,8.08
2024-03-26T04:00:43.362Z,8.07
2024-03-26T04:01:43.365Z,8.10
2024-03-26T04:02:43.375Z,8.14
2024-03-26T04:03:43.366Z,8.07
2024-03-26T04:04:43.360Z,8.12
2024-03-26T04:05:43.304Z,8.07
2024-03-26T04:06:43.273Z,8.10
2024-03-26T04:07:43.330Z,8.08
2024-03-26T04:08:43.265Z,8.07
2024-03-26T04:09:43.247Z,8.07
2024-03-26T04:10:43.265Z,8.07
2024-03-26T04:11:43.230Z,8.08
2024-03-26T04:12:43.232Z,8.08
2024-03-26T04:13:43.202Z,8.10
2024-03-26T04:14:43.173Z,8.04
2024-03-26T04:15:43.173Z,8.02
2024-03-26T04:16:43.192Z,8.03
2024-03-26T04:17:43.139Z,8.03
2024-03-26T04:18:43.135Z,8.03
2024-03-26T04:19:43.140Z,8.04
2024-03-26T04:20:43.112Z,8.04
2024-03-26T04:21:43.108Z,8.04
2024-03-26T04:22:43.109Z,8.02
2024-03-26T04:23:43.076Z,8.04
2024-03-26T04:24:43.038Z,8.02
2024-03-26T04:25:43.078Z,8.00
2024-03-26T04:26:43.023Z,7.97
2024-03-26T04:27:43.000Z,7.97
2024-03-26T04:28:42.990Z,7.97
2024-03-26T04:29:43.004Z,7.97
2024-03-26T04:30:42.971Z,8.02
2024-03-26T04:31:42.945Z,7.99
2024-03-26T04:32:42.931Z,7.99
2024-03-26T04:33:42.926Z,7.96
2024-03-26T04:34:42.914Z,7.94
2024-03-26T04:35:42.972Z,7.97
2024-03-26T04:36:42.882Z,8.02
2024-03-26T04:37:42.871Z,8.02
2024-03-26T04:38:42.866Z,8.02
2024-03-26T04:39:42.900Z,8.00
2024-03-26T04:40:42.859Z,8.02
2024-03-26T04:41:42.845Z,7.99
2024-03-26T04:42:42.820Z,7.97
2024-03-26T04:43:42.808Z,7.99
2024-03-26T04:44:42.815Z,7.99
2024-03-26T04:45:42.761Z,7.93
2024-03-26T04:46:42.772Z,7.92
2024-03-26T04:47:42.732Z,7.93
2024-03-26T04:48:42.759Z,7.93
2024-03-26T04:49:42.721Z,7.89
2024-03-26T04:50:42.712Z,7.85
2024-03-26T04:51:42.704Z,7.84
2024-03-26T04:52:42.698Z,7.87
2024-03-26T04:53:42.687Z,7.85
2024-03-26T04:54:42.657Z,7.87
2024-03-26T04:55:42.622Z,7.87
2024-03-26T04:56:42.622Z,7.87
2024-03-26T04:57:42.608Z,7.89
2024-03-26T04:58:42.615Z,7.87
2024-03-26T04:59:42.594Z,7.93
2024-03-26T05:00:42.567Z,7.92
2024-03-26T05:01:42.569Z,7.92
2024-03-26T05:02:42.565Z,7.92
2024-03-26T05:03:42.554Z,7.85
2024-03-26T05:04:42.524Z,7.87
2024-03-26T05:05:42.551Z,7.87
2024-03-26T05:06:42.506Z,7.84
2024-03-26T05:07:42.519Z,7.85
2024-03-26T05:08:42.472Z,7.87
2024-03-26T05:09:42.477Z,7.87
2024-03-26T05:10:42.450Z,7.89
2024-03-26T05:11:42.460Z,7.84
2024-03-26T05:12:42.441Z,7.84
2024-03-26T05:13:42.457Z,7.89
2024-03-26T05:14:42.405Z,7.89
2024-03-26T05:15:42.392Z,7.81
2024-03-26T05:16:42.365Z,7.84
2024-03-26T05:17:42.370Z,7.81
2024-03-26T05:18:42.343Z,7.81
2024-03-26T05:19:42.330Z,7.81
2024-03-26T05:20:42.293Z,7.77
2024-03-26T05:21:42.316Z,7.74
2024-03-26T05:22:42.296Z,7.74
2024-03-26T05:23:42.272Z,7.75
2024-03-26T05:24:42.261Z,7.78
2024-03-26T05:25:42.238Z,7.77
2024-03-26T05:26:42.254Z,7.72
2024-03-26T05:27:42.196Z,7.71
2024-03-26T05:28:42.228Z,7.67
2024-03-26T05:29:42.188Z,7.67
2024-03-26T05:30:42.200Z,7.66
2024-03-26T05:31:42.201Z,7.69
2024-03-26T05:32:42.318Z,7.67
2024-03-26T05:33:42.123Z,7.66
2024-03-26T05:34:42.135Z,7.63
2024-03-26T05:35:42.130Z,7.67
2024-03-26T05:36:42.127Z,7.66
2024-03-26T05:37:42.099Z,7.67
2024-03-26T05:38:42.074Z,7.66
2024-03-26T05:39:42.122Z,7.69
2024-03-26T05:40:42.080Z,7.71
2024-03-26T05:41:42.040Z,7.69
2024-03-26T05:42:42.023Z,7.71
2024-03-26T05:43:42.052Z,7.75
2024-03-26T05:44:42.103Z,7.72
2024-03-26T05:45:41.977Z,7.75
2024-03-26T05:46:41.974Z,7.71
2024-03-26T05:47:41.955Z,7.75
2024-03-26T05:48:41.948Z,7.74
2024-03-26T05:49:41.988Z,7.75
2024-03-26T05:50:41.921Z,7.77
2024-03-26T05:51:41.911Z,7.78
2024-03-26T05:52:41.909Z,7.75
2024-03-26T05:53:41.873Z,7.75
2024-03-26T05:54:41.859Z,7.75
2024-03-26T05:55:41.848Z,7.77
2024-03-26T05:56:41.823Z,7.81
2024-03-26T05:57:41.837Z,7.77
2024-03-26T05:58:41.828Z,7.78
2024-03-26T05:59:41.801Z,7.82
2024-03-26T06:00:41.792Z,7.82
2024-03-26T06:01:41.763Z,7.81
2024-03-26T06:02:41.767Z,7.82
2024-03-26T06:03:41.914Z,7.84
2024-03-26T06:04:41.801Z,7.84
2024-03-26T06:05:41.705Z,7.82
2024-03-26T06:06:41.695Z,7.87
2024-03-26T06:07:41.675Z,7.90
2024-03-26T06:08:41.703Z,7.90
2024-03-26T06:09:41.656Z,7.87
2024-03-26T06:10:41.672Z,7.87
2024-03-26T06:11:41.624Z,7.89
2024-03-26T06:12:41.637Z,7.92
2024-03-26T06:13:41.652Z,7.93
2024-03-26T06:14:41.606Z,7.94
2024-03-26T06:15:41.589Z,7.99
2024-03-26T06:16:41.580Z,7.99
2024-03-26T06:17:41.585Z,8.02
2024-03-26T06:18:41.982Z,8.04
2024-03-26T06:19:41.529Z,8.02
2024-03-26T06:20:41.528Z,8.00
2024-03-26T06:21:41.501Z,8.00
2024-03-26T06:22:41.512Z,8.04
2024-03-26T06:23:41.494Z,8.07
2024-03-26T06:24:41.456Z,8.00
2024-03-26T06:25:41.434Z,8.00
2024-03-26T06:26:41.464Z,8.03
2024-03-26T06:27:41.441Z,8.08
2024-03-26T06:28:41.424Z,8.08
2024-03-26T06:29:41.379Z,8.10
2024-03-26T06:30:41.391Z,8.03
2024-03-26T06:31:41.451Z,8.07
2024-03-26T06:32:41.417Z,8.07
2024-03-26T06:33:41.339Z,8.07
2024-03-26T06:34:41.352Z,8.04
2024-03-26T06:35:41.326Z,8.07
2024-03-26T06:36:41.353Z,8.07
2024-03-26T06:37:41.287Z,8.10
2024-03-26T06:38:41.293Z,8.11
2024-03-26T06:39:41.259Z,8.14
2024-03-26T06:40:41.265Z,8.12
2024-03-26T06:41:41.284Z,8.14
2024-03-26T06:42:41.235Z,8.15
2024-03-26T06:43:41.235Z,8.20
2024-03-26T06:44:41.227Z,8.21
2024-03-26T06:45:41.195Z,8.18
2024-03-26T06:46:41.187Z,8.15
2024-03-26T06:47:41.204Z,8.15
2024-03-26T06:48:41.135Z,8.15
2024-03-26T06:49:41.136Z,8.17
2024-03-26T06:50:41.147Z,8.17
2024-03-26T06:51:43.093Z,8.18
2024-03-26T06:52:41.163Z,8.17
2024-03-26T06:53:41.206Z,8.22
2024-03-26T06:54:41.220Z,8.26
2024-03-26T06:55:41.177Z,8.29
2024-03-26T06:56:41.028Z,8.26
2024-03-26T06:57:41.004Z,8.28
2024-03-26T06:58:41.037Z,8.28
2024-03-26T06:59:41.016Z,8.28
2024-03-26T07:00:41.007Z,8.29
2024-03-26T07:01:40.990Z,8.35
2024-03-26T07:02:40.967Z,8.33
2024-03-26T07:03:40.929Z,8.39
2024-03-26T07:04:41.034Z,8.39
2024-03-26T07:05:40.918Z,8.36
2024-03-26T07:06:40.902Z,8.40
2024-03-26T07:07:40.889Z,8.44
2024-03-26T07:08:40.879Z,8.45
2024-03-26T07:09:40.877Z,8.42
2024-03-26T07:10:40.901Z,8.42
2024-03-26T07:11:40.856Z,8.45
2024-03-26T07:12:40.835Z,8.44
2024-03-26T07:13:40.822Z,8.44
2024-03-26T07:14:40.801Z,8.51
2024-03-26T07:15:40.768Z,8.54
2024-03-26T07:16:40.808Z,8.60
2024-03-26T07:17:40.748Z,8.65
2024-03-26T07:18:43.153Z,8.66
2024-03-26T07:19:40.759Z,8.69
2024-03-26T07:20:40.720Z,8.68
2024-03-26T07:21:40.696Z,8.62
2024-03-26T07:22:40.709Z,8.60
2024-03-26T07:23:40.689Z,8.62
2024-03-26T07:24:40.704Z,8.63
2024-03-26T07:25:40.641Z,8.63
2024-03-26T07:26:40.642Z,8.66
2024-03-26T07:27:40.628Z,8.66
2024-03-26T07:28:40.619Z,8.62
2024-03-26T07:29:40.602Z,8.62
2024-03-26T07:30:40.591Z,8.68
2024-03-26T07:31:40.584Z,8.73
2024-03-26T07:32:40.559Z,8.78
2024-03-26T07:33:40.552Z,8.79
2024-03-26T07:34:40.516Z,8.75
2024-03-26T07:35:40.519Z,8.73
2024-03-26T07:36:40.506Z,8.71
2024-03-26T07:37:40.523Z,8.79
2024-03-26T07:38:40.497Z,8.86
2024-03-26T07:39:40.510Z,8.81
2024-03-26T07:40:40.450Z,8.81
2024-03-26T07:41:40.447Z,8.79
2024-03-26T07:42:40.467Z,8.86
2024-03-26T07:43:40.396Z,8.86
2024-03-26T07:44:40.434Z,8.86
2024-03-26T07:45:40.389Z,8.88
2024-03-26T07:46:40.398Z,8.91
2024-03-26T07:47:40.362Z,8.93
2024-03-26T07:48:40.344Z,8.86
2024-03-26T07:49:40.358Z,8.87
2024-03-26T07:50:40.318Z,8.94
2024-03-26T07:51:40.375Z,8.99
2024-03-26T07:52:40.426Z,9.06
2024-03-26T07:53:40.270Z,9.13
2024-03-26T07:54:40.279Z,9.15
2024-03-26T07:55:40.289Z,9.12
2024-03-26T07:56:40.368Z,9.10
2024-03-26T07:57:40.286Z,9.06
2024-03-26T07:58:40.233Z,9.09
2024-03-26T07:59:40.194Z,9.15
2024-03-26T08:00:40.256Z,9.21
2024-03-26T08:01:40.209Z,9.27
2024-03-26T08:02:40.154Z,9.24
2024-03-26T08:03:40.179Z,9.24
2024-03-26T08:04:42.443Z,9.27
2024-03-26T08:05:40.184Z,9.30
2024-03-26T08:06:40.112Z,9.30
2024-03-26T08:07:40.104Z,9.31
2024-03-26T08:08:40.154Z,9.35
2024-03-26T08:09:40.087Z,9.46
2024-03-26T08:10:41.615Z,9.43
2024-03-26T08:11:40.051Z,9.45
2024-03-26T08:12:40.049Z,9.43
2024-03-26T08:13:40.063Z,9.43
2024-03-26T08:14:40.014Z,9.48
2024-03-26T08:15:40.020Z,9.53
2024-03-26T08:16:39.971Z,9.58
2024-03-26T08:17:40.028Z,9.63
2024-03-26T08:18:39.966Z,9.66
2024-03-26T08:19:39.962Z,9.70
2024-03-26T08:20:39.916Z,9.73
2024-03-26T08:21:39.920Z,9.78
2024-03-26T08:22:39.905Z,9.86
2024-03-26T08:23:39.917Z,9.96
2024-03-26T08:24:39.925Z,9.97
2024-03-26T08:25:39.859Z,9.96
2024-03-26T08:26:39.841Z,9.88
2024-03-26T08:27:39.833Z,9.88
2024-03-26T08:28:39.871Z,9.93
2024-03-26T08:29:39.804Z,9.99
2024-03-26T08:30:39.788Z,9.99
2024-03-26T08:31:39.805Z,10.03
2024-03-26T08:32:39.845Z,10.04
2024-03-26T08:33:39.769Z,10.09
2024-03-26T08:34:39.741Z,10.12
2024-03-26T08:35:39.747Z,10.17
2024-03-26T08:36:39.725Z,10.18
2024-03-26T08:37:39.703Z,10.22
2024-03-26T08:38:39.754Z,10.25
2024-03-26T08:39:39.657Z,10.26
2024-03-26T08:40:39.679Z,10.22
2024-03-26T08:41:39.644Z,10.15
2024-03-26T08:42:39.643Z,10.14
2024-03-26T08:43:39.651Z,10.15
2024-03-26T08:44:39.592Z,10.21
2024-03-26T08:45:39.588Z,10.24
2024-03-26T08:46:39.561Z,10.28
2024-03-26T08:47:39.570Z,10.22
2024-03-26T08:48:39.551Z,10.19
2024-03-26T08:49:39.526Z,10.21
2024-03-26T08:50:39.529Z,10.22
2024-03-26T08:51:39.509Z,10.21
2024-03-26T08:52:39.514Z,10.19
2024-03-26T08:53:39.506Z,10.18
2024-03-26T08:54:39.490Z,10.21
2024-03-26T08:55:39.452Z,10.22
2024-03-26T08:56:39.466Z,10.25
2024-03-26T08:57:39.422Z,10.19
2024-03-26T08:58:39.404Z,10.24
2024-03-26T08:59:39.413Z,10.25
2024-03-26T09:00:39.428Z,10.21
2024-03-26T09:01:39.392Z,10.19
2024-03-26T09:02:39.365Z,10.24
2024-03-26T09:03:39.340Z,10.26
2024-03-26T09:04:39.341Z,10.28
2024-03-26T09:05:39.350Z,10.30
2024-03-26T09:06:39.309Z,10.24
2024-03-26T09:07:39.292Z,10.22
2024-03-26T09:08:39.290Z,10.21
2024-03-26T09:09:39.276Z,10.24
2024-03-26T09:10:39.274Z,10.19
2024-03-26T09:11:39.224Z,10.19
2024-03-26T09:12:39.221Z,10.22
2024-03-26T09:13:39.204Z,10.25
2024-03-26T09:14:39.225Z,10.26
2024-03-26T09:15:39.190Z,10.30
2024-03-26T09:16:39.165Z,10.34
2024-03-26T09:17:39.155Z,10.28
2024-03-26T09:18:39.147Z,10.30
2024-03-26T09:19:39.162Z,10.28
2024-03-26T09:20:39.151Z,10.22
2024-03-26T09:21:39.107Z,10.18
2024-03-26T09:22:39.098Z,10.12
2024-03-26T09:23:39.075Z,10.09
2024-03-26T09:24:46.096Z,10.12
2024-03-26T09:25:40.049Z,10.12
2024-03-26T09:26:39.055Z,10.15
2024-03-26T09:27:39.029Z,10.19
2024-03-26T09:28:39.014Z,10.15
2024-03-26T09:29:39.017Z,10.14
2024-03-26T09:30:39.000Z,10.12
2024-03-26T09:31:38.972Z,10.17
2024-03-26T09:32:39.002Z,10.22
2024-03-26T09:33:38.965Z,10.18
2024-03-26T09:34:38.938Z,10.17
2024-03-26T09:35:38.932Z,10.15
2024-03-26T09:36:39.488Z,10.17
2024-03-26T09:37:39.149Z,10.10
2024-03-26T09:38:43.954Z,10.07
2024-03-26T09:39:39.879Z,10.12
2024-03-26T09:40:38.837Z,10.18
2024-03-26T09:41:38.835Z,10.25
2024-03-26T09:42:38.829Z,10.33
2024-03-26T09:43:38.844Z,10.34
2024-03-26T09:44:38.783Z,10.40
2024-03-26T09:45:38.804Z,10.43
2024-03-26T09:46:38.777Z,10.44
2024-03-26T09:47:38.770Z,10.52
2024-03-26T09:48:38.759Z,10.58
2024-03-26T09:49:39.877Z,10.62
2024-03-26T09:50:38.726Z,10.63
2024-03-26T09:51:38.697Z,10.66
2024-03-26T09:52:38.719Z,10.66
2024-03-26T09:53:38.685Z,10.66
2024-03-26T09:54:38.647Z,10.66
2024-03-26T09:55:38.647Z,10.68
2024-03-26T09:56:38.642Z,10.70
2024-03-26T09:57:38.637Z,10.66
2024-03-26T09:58:38.585Z,10.73
2024-03-26T09:59:38.598Z,10.77
2024-03-26T10:00:39.530Z,10.76
2024-03-26T10:01:38.588Z,10.83
2024-03-26T10:02:38.532Z,10.89
2024-03-26T10:03:38.539Z,10.88
2024-03-26T10:04:38.510Z,10.84
2024-03-26T10:05:38.525Z,10.84
2024-03-26T10:06:38.515Z,10.88
2024-03-26T10:07:38.478Z,10.92
2024-03-26T10:08:38.468Z,10.95
2024-03-26T10:09:38.450Z,10.96
2024-03-26T10:10:38.472Z,10.98
2024-03-26T10:11:41.585Z,10.89
2024-03-26T10:12:38.452Z,10.80
2024-03-26T10:13:38.395Z,10.81
2024-03-26T10:14:38.365Z,10.83
2024-03-26T10:15:38.389Z,10.88
2024-03-26T10:16:38.344Z,10.83
2024-03-26T10:17:38.378Z,10.77
2024-03-26T10:18:38.328Z,10.71
2024-03-26T10:19:38.318Z,10.73
2024-03-26T10:20:38.319Z,10.74
2024-03-26T10:21:38.286Z,10.78
2024-03-26T10:22:38.265Z,10.80
2024-03-26T10:23:38.253Z,10.80
2024-03-26T10:24:38.334Z,10.78
2024-03-26T10:25:38.243Z,10.78
2024-03-26T10:26:38.228Z,10.74
2024-03-26T10:27:38.251Z,10.76
2024-03-26T10:28:38.217Z,10.81
2024-03-26T10:29:38.222Z,10.84
2024-03-26T10:30:38.173Z,10.86
2024-03-26T10:31:38.162Z,10.94
2024-03-26T10:32:38.161Z,10.96
2024-03-26T10:33:38.159Z,11.01
2024-03-26T10:34:38.139Z,11.07
2024-03-26T10:35:38.110Z,11.11
2024-03-26T10:36:38.078Z,11.10
2024-03-26T10:37:38.083Z,11.14
2024-03-26T10:38:38.823Z,11.19
2024-03-26T10:39:38.102Z,11.20
2024-03-26T10:40:38.052Z,11.24
2024-03-26T10:41:38.019Z,11.20
2024-03-26T10:42:38.020Z,11.21
2024-03-26T10:43:38.042Z,11.19
2024-03-26T10:44:37.983Z,11.21
2024-03-26T10:45:49.262Z,11.25
2024-03-26T10:46:38.959Z,11.31
2024-03-26T10:47:37.959Z,11.35
2024-03-26T10:48:47.275Z,11.44
2024-03-26T10:49:38.921Z,11.49
2024-03-26T10:50:37.902Z,11.53
2024-03-26T10:51:37.890Z,11.62
2024-03-26T10:52:37.899Z,11.65
2024-03-26T10:53:37.884Z,11.67
2024-03-26T10:54:37.835Z,11.78
2024-03-26T10:55:37.834Z,11.78
2024-03-26T10:56:37.823Z,11.93
2024-03-26T10:57:37.815Z,11.94
2024-03-26T10:58:37.800Z,11.94
2024-03-26T10:59:37.797Z,11.89
2024-03-26T11:00:37.792Z,12.01
2024-03-26T11:01:37.776Z,12.11
2024-03-26T11:02:37.789Z,12.16
2024-03-26T11:03:37.750Z,12.37
2024-03-26T11:04:37.946Z,12.52
2024-03-26T11:05:37.706Z,12.74
2024-03-26T11:06:37.708Z,12.87
2024-03-26T11:07:37.691Z,13.09
2024-03-26T11:08:37.657Z,13.20
2024-03-26T11:09:37.663Z,13.36
2024-03-26T11:10:37.664Z,13.54
2024-03-26T11:11:37.631Z,13.62
2024-03-26T11:12:37.600Z,13.71
2024-03-26T11:13:37.598Z,13.83
2024-03-26T11:14:37.586Z,13.73
2024-03-26T11:15:37.577Z,13.71
2024-03-26T11:16:37.574Z,13.79
2024-03-26T11:17:37.536Z,13.80
2024-03-26T11:18:37.518Z,13.73
2024-03-26T11:19:37.531Z,13.49
2024-03-26T11:20:37.506Z,13.27
2024-03-26T11:21:37.498Z,13.30
2024-03-26T11:22:37.469Z,13.27
2024-03-26T11:23:37.481Z,13.29
2024-03-26T11:24:37.488Z,13.30
2024-03-26T11:25:37.445Z,13.29
2024-03-26T11:26:37.430Z,13.29
2024-03-26T11:27:37.401Z,13.37
2024-03-26T11:28:37.411Z,13.27
2024-03-26T11:29:37.452Z,13.14
2024-03-26T11:30:37.401Z,13.09
2024-03-26T11:31:37.347Z,13.07
2024-03-26T11:32:37.328Z,13.15
2024-03-26T11:33:37.322Z,12.99
2024-03-26T11:34:37.321Z,13.02
2024-03-26T11:35:37.307Z,13.02
2024-03-26T11:36:37.276Z,12.99
2024-03-26T11:37:37.286Z,13.03
2024-03-26T11:38:37.253Z,13.00
2024-03-26T11:39:37.256Z,12.89
2024-03-26T11:40:37.222Z,12.78
2024-03-26T11:41:37.223Z,12.64
2024-03-26T11:42:37.221Z,12.59
2024-03-26T11:43:37.201Z,12.63
2024-03-26T11:44:37.210Z,12.70
2024-03-26T11:45:37.158Z,12.69
2024-03-26T11:46:37.186Z,12.75
2024-03-26T11:47:37.145Z,12.84
2024-03-26T11:48:37.144Z,12.92
2024-03-26T11:49:37.102Z,12.92
2024-03-26T11:50:37.094Z,12.89
2024-03-26T11:51:37.860Z,12.88
2024-03-26T11:52:37.084Z,12.87
2024-03-26T11:53:37.071Z,12.95
2024-03-26T11:54:37.049Z,13.00
2024-03-26T11:55:37.041Z,12.99
2024-03-26T11:56:37.009Z,12.96
2024-03-26T11:57:37.039Z,12.96
2024-03-26T11:58:37.010Z,12.92
2024-03-26T11:59:36.979Z,12.96
2024-03-26T12:00:36.957Z,13.09
2024-03-26T12:01:36.958Z,13.04
2024-03-26T12:02:36.950Z,13.18
2024-03-26T12:03:36.919Z,13.37
2024-03-26T12:04:36.932Z,13.61
2024-03-26T12:05:36.909Z,13.80
2024-03-26T12:06:36.889Z,13.98
2024-03-26T12:07:36.907Z,14.09
2024-03-26T12:08:36.851Z,14.17
2024-03-26T12:09:36.838Z,14.35
2024-03-26T12:10:36.851Z,14.43
2024-03-26T12:11:36.838Z,14.44
2024-03-26T12:12:36.809Z,14.50
2024-03-26T12:13:36.800Z,14.32
2024-03-26T12:14:36.778Z,14.12
2024-03-26T12:15:36.778Z,14.01
2024-03-26T12:16:36.772Z,13.91
2024-03-26T12:17:36.738Z,13.95
2024-03-26T12:18:36.718Z,13.99
2024-03-26T12:19:36.720Z,14.16
2024-03-26T12:20:36.698Z,14.31
2024-03-26T12:21:36.703Z,14.32
2024-03-26T12:22:36.667Z,14.24
2024-03-26T12:23:36.672Z,14.43
2024-03-26T12:24:36.632Z,14.54
2024-03-26T12:25:36.669Z,14.60
2024-03-26T12:26:36.647Z,14.61
2024-03-26T12:27:36.614Z,14.60
2024-03-26T12:28:36.588Z,14.53
2024-03-26T12:29:36.593Z,14.42
2024-03-26T12:30:36.584Z,14.28
2024-03-26T12:31:36.556Z,14.31
2024-03-26T12:32:36.540Z,14.38
2024-03-26T12:33:36.527Z,14.56
2024-03-26T12:34:36.512Z,14.74
2024-03-26T12:35:36.524Z,14.86
2024-03-26T12:36:36.507Z,15.03
2024-03-26T12:37:36.474Z,15.23
2024-03-26T12:38:36.464Z,15.41
2024-03-26T12:39:36.484Z,15.54
2024-03-26T12:40:36.466Z,15.74
2024-03-26T12:41:36.444Z,15.96
2024-03-26T12:42:36.395Z,16.22
2024-03-26T12:43:36.401Z,16.38
2024-03-26T12:44:36.902Z,16.44
2024-03-26T12:45:36.372Z,16.38
2024-03-26T12:46:36.346Z,16.37
2024-03-26T12:47:36.342Z,16.53
2024-03-26T12:48:36.320Z,16.50
2024-03-26T12:49:36.323Z,16.31
2024-03-26T12:50:36.295Z,16.07
2024-03-26T12:51:36.282Z,16.04
2024-03-26T12:52:36.258Z,16.04
2024-03-26T12:53:36.271Z,16.04
2024-03-26T12:54:36.256Z,15.94
2024-03-26T12:55:36.220Z,15.84
2024-03-26T12:56:36.224Z,15.81
2024-03-26T12:57:36.218Z,15.89
2024-03-26T12:58:36.208Z,15.79
2024-03-26T12:59:36.194Z,15.63
2024-03-26T13:00:36.168Z,15.46
2024-03-26T13:01:36.151Z,15.39
2024-03-26T13:02:36.146Z,15.28
2024-03-26T13:03:36.160Z,15.19
2024-03-26T13:04:36.144Z,15.11
2024-03-26T13:05:36.089Z,14.93
2024-03-26T13:06:36.111Z,14.88
2024-03-26T13:07:36.091Z,14.83
2024-03-26T13:08:36.343Z,14.57
2024-03-26T13:09:36.041Z,14.35